sensor_id;sensor_type;location;lat;lon;timestamp;pressure;altitude;pressure_sealevel;temperature;humidity
31357;BME280;60001;48.404;11.738;2023-03-01T00:01:31;96898.66;;;2.03;62.39
31357;BME280;60001;48.404;11.738;2023-03-01T00:03:03;96906.41;;;1.97;62.70
31357;BME280;60001;48.404;11.738;2023-03-01T00:04:35;96901.78;;;1.99;63.20
31357;BME280;60001;48.404;11.738;2023-03-01T00:06:07;96909.88;;;2.04;63.15
31357;BME280;60001;48.404;11.738;2023-03-01T00:07:38;96906.19;;;1.98;62.84
31357;BME280;60001;48.404;11.738;2023-03-01T00:09:10;96894.53;;;1.94;62.89
31357;BME280;60001;48.404;11.738;2023-03-01T00:10:41;96897.41;;;1.99;62.60
31357;BME280;60001;48.404;11.738;2023-03-01T00:12:12;96889.81;;;1.83;63.27
31357;BME280;60001;48.404;11.738;2023-03-01T00:13:45;96894.53;;;1.94;63.44
31357;BME280;60001;48.404;11.738;2023-03-01T00:15:18;96892.69;;;1.88;63.31
31357;BME280;60001;48.404;11.738;2023-03-01T00:16:48;96893.41;;;1.82;63.48
31357;BME280;60001;48.404;11.738;2023-03-01T00:18:20;96888.50;;;1.93;63.14
31357;BME280;60001;48.404;11.738;2023-03-01T00:19:54;96898.56;;;1.97;62.69
31357;BME280;60001;48.404;11.738;2023-03-01T00:21:27;96879.19;;;1.84;62.95
31357;BME280;60001;48.404;11.738;2023-03-01T00:22:59;96895.50;;;1.93;63.28
31357;BME280;60001;48.404;11.738;2023-03-01T00:24:33;96889.22;;;1.87;63.48
31357;BME280;60001;48.404;11.738;2023-03-01T00:26:07;96892.47;;;1.89;62.89
31357;BME280;60001;48.404;11.738;2023-03-01T00:27:40;96890.50;;;1.91;62.86
31357;BME280;60001;48.404;11.738;2023-03-01T00:29:12;96884.66;;;1.89;63.14
31357;BME280;60001;48.404;11.738;2023-03-01T00:30:44;96884.31;;;1.78;63.27
31357;BME280;60001;48.404;11.738;2023-03-01T00:32:15;96883.13;;;1.80;63.35
31357;BME280;60001;48.404;11.738;2023-03-01T00:33:47;96875.97;;;1.82;63.65
31357;BME280;60001;48.404;11.738;2023-03-01T00:35:20;96878.91;;;1.94;63.15
31357;BME280;60001;48.404;11.738;2023-03-01T00:36:53;96879.34;;;1.98;62.49
31357;BME280;60001;48.404;11.738;2023-03-01T00:38:25;96870.94;;;1.96;62.86
31357;BME280;60001;48.404;11.738;2023-03-01T00:39:56;96880.44;;;2.03;62.31
31357;BME280;60001;48.404;11.738;2023-03-01T00:41:28;96878.34;;;1.99;62.24
31357;BME280;60001;48.404;11.738;2023-03-01T00:42:59;96881.22;;;2.04;62.46
31357;BME280;60001;48.404;11.738;2023-03-01T00:44:31;96876.63;;;2.06;62.77
31357;BME280;60001;48.404;11.738;2023-03-01T00:46:06;96874.66;;;2.08;62.57
31357;BME280;60001;48.404;11.738;2023-03-01T00:47:37;96860.75;;;2.01;62.06
31357;BME280;60001;48.404;11.738;2023-03-01T00:49:09;96874.84;;;2.06;62.08
31357;BME280;60001;48.404;11.738;2023-03-01T00:50:42;96865.72;;;1.96;62.53
31357;BME280;60001;48.404;11.738;2023-03-01T00:52:14;96856.84;;;1.90;63.26
31357;BME280;60001;48.404;11.738;2023-03-01T00:53:46;96866.94;;;2.00;62.20
31357;BME280;60001;48.404;11.738;2023-03-01T00:55:18;96856.72;;;1.98;62.58
31357;BME280;60001;48.404;11.738;2023-03-01T00:56:50;96853.66;;;1.95;62.61
31357;BME280;60001;48.404;11.738;2023-03-01T00:58:21;96858.31;;;1.99;62.56
31357;BME280;60001;48.404;11.738;2023-03-01T00:59:52;96864.34;;;2.00;63.22
31357;BME280;60001;48.404;11.738;2023-03-01T01:01:25;96862.72;;;1.99;62.60
31357;BME280;60001;48.404;11.738;2023-03-01T01:03:00;96854.03;;;1.91;62.90
31357;BME280;60001;48.404;11.738;2023-03-01T01:04:32;96857.16;;;2.02;63.41
31357;BME280;60001;48.404;11.738;2023-03-01T01:06:06;96852.38;;;2.05;62.69
31357;BME280;60001;48.404;11.738;2023-03-01T01:07:39;96843.63;;;1.91;62.94
31357;BME280;60001;48.404;11.738;2023-03-01T01:09:14;96854.19;;;2.05;62.87
31357;BME280;60001;48.404;11.738;2023-03-01T01:10:48;96843.50;;;2.00;63.22
31357;BME280;60001;48.404;11.738;2023-03-01T01:12:19;96831.22;;;1.93;62.84
31357;BME280;60001;48.404;11.738;2023-03-01T01:13:51;96845.03;;;2.09;62.66
31357;BME280;60001;48.404;11.738;2023-03-01T01:15:22;96841.44;;;2.10;62.17
31357;BME280;60001;48.404;11.738;2023-03-01T01:16:54;96840.97;;;2.06;62.53
31357;BME280;60001;48.404;11.738;2023-03-01T01:18:25;96839.28;;;1.99;63.02
31357;BME280;60001;48.404;11.738;2023-03-01T01:19:57;96843.44;;;1.93;62.62
31357;BME280;60001;48.404;11.738;2023-03-01T01:21:30;96833.94;;;1.85;63.47
31357;BME280;60001;48.404;11.738;2023-03-01T01:23:02;96828.53;;;1.87;63.67
31357;BME280;60001;48.404;11.738;2023-03-01T01:24:36;96835.06;;;1.98;62.72
31357;BME280;60001;48.404;11.738;2023-03-01T01:26:13;96838.50;;;1.98;63.00
31357;BME280;60001;48.404;11.738;2023-03-01T01:27:45;96838.94;;;2.02;62.57
31357;BME280;60001;48.404;11.738;2023-03-01T01:29:16;96833.66;;;1.95;62.86
31357;BME280;60001;48.404;11.738;2023-03-01T01:30:48;96838.09;;;2.01;63.11
31357;BME280;60001;48.404;11.738;2023-03-01T01:32:19;96830.28;;;2.01;63.08
31357;BME280;60001;48.404;11.738;2023-03-01T01:33:52;96830.00;;;1.89;62.98
31357;BME280;60001;48.404;11.738;2023-03-01T01:35:23;96824.84;;;1.96;63.35
31357;BME280;60001;48.404;11.738;2023-03-01T01:36:58;96826.72;;;2.02;62.62
31357;BME280;60001;48.404;11.738;2023-03-01T01:38:33;96826.88;;;2.01;62.81
31357;BME280;60001;48.404;11.738;2023-03-01T01:40:06;96823.66;;;1.99;62.70
31357;BME280;60001;48.404;11.738;2023-03-01T01:41:38;96820.19;;;1.91;62.60
31357;BME280;60001;48.404;11.738;2023-03-01T01:43:19;96826.38;;;1.90;62.85
31357;BME280;60001;48.404;11.738;2023-03-01T01:46:59;96831.19;;;1.72;63.61
31357;BME280;60001;48.404;11.738;2023-03-01T01:48:39;96830.03;;;1.75;63.63
31357;BME280;60001;48.404;11.738;2023-03-01T01:50:18;96821.84;;;1.78;62.98
31357;BME280;60001;48.404;11.738;2023-03-01T01:51:59;96818.47;;;1.62;63.16
31357;BME280;60001;48.404;11.738;2023-03-01T01:53:32;96822.22;;;1.75;63.66
31357;BME280;60001;48.404;11.738;2023-03-01T01:55:08;96821.66;;;1.79;63.49
31357;BME280;60001;48.404;11.738;2023-03-01T01:56:46;96817.16;;;1.73;63.50
31357;BME280;60001;48.404;11.738;2023-03-01T01:58:21;96821.03;;;1.77;63.67
31357;BME280;60001;48.404;11.738;2023-03-01T01:59:56;96818.63;;;1.76;63.22
31357;BME280;60001;48.404;11.738;2023-03-01T02:01:30;96810.13;;;1.67;64.04
31357;BME280;60001;48.404;11.738;2023-03-01T02:03:07;96816.84;;;1.61;63.61
31357;BME280;60001;48.404;11.738;2023-03-01T02:04:40;96812.44;;;1.62;63.97
31357;BME280;60001;48.404;11.738;2023-03-01T02:06:19;96804.66;;;1.62;63.37
31357;BME280;60001;48.404;11.738;2023-03-01T02:07:56;96804.47;;;1.49;63.73
31357;BME280;60001;48.404;11.738;2023-03-01T02:09:31;96812.56;;;1.54;64.02
31357;BME280;60001;48.404;11.738;2023-03-01T02:11:03;96810.84;;;1.61;63.78
31357;BME280;60001;48.404;11.738;2023-03-01T02:12:36;96815.94;;;1.69;63.92
31357;BME280;60001;48.404;11.738;2023-03-01T02:14:07;96812.56;;;1.54;63.38
31357;BME280;60001;48.404;11.738;2023-03-01T02:15:42;96807.25;;;1.62;63.49
31357;BME280;60001;48.404;11.738;2023-03-01T02:17:16;96798.63;;;1.61;63.71
31357;BME280;60001;48.404;11.738;2023-03-01T02:18:50;96800.44;;;1.61;63.39
31357;BME280;60001;48.404;11.738;2023-03-01T02:20:30;96799.69;;;1.67;63.21
31357;BME280;60001;48.404;11.738;2023-03-01T02:22:16;96798.25;;;1.64;63.41
31357;BME280;60001;48.404;11.738;2023-03-01T02:23:53;96801.66;;;1.65;63.68
31357;BME280;60001;48.404;11.738;2023-03-01T02:25:31;96795.13;;;1.69;63.56
31357;BME280;60001;48.404;11.738;2023-03-01T02:27:05;96797.25;;;1.65;62.90
31357;BME280;60001;48.404;11.738;2023-03-01T02:28:40;96797.03;;;1.60;63.29
31357;BME280;60001;48.404;11.738;2023-03-01T02:30:14;96801.25;;;1.47;63.57
31357;BME280;60001;48.404;11.738;2023-03-01T02:31:46;96792.47;;;1.48;63.36
31357;BME280;60001;48.404;11.738;2023-03-01T02:33:18;96789.88;;;1.48;63.95
31357;BME280;60001;48.404;11.738;2023-03-01T02:34:49;96791.31;;;1.35;63.19
31357;BME280;60001;48.404;11.738;2023-03-01T02:36:24;96793.19;;;1.42;63.87
31357;BME280;60001;48.404;11.738;2023-03-01T02:37:56;96800.63;;;1.45;63.34
31357;BME280;60001;48.404;11.738;2023-03-01T02:39:36;96782.97;;;1.40;63.70
31357;BME280;60001;48.404;11.738;2023-03-01T02:41:15;96792.81;;;1.45;63.23
31357;BME280;60001;48.404;11.738;2023-03-01T02:42:51;96788.09;;;1.33;64.06
31357;BME280;60001;48.404;11.738;2023-03-01T02:44:28;96782.59;;;1.43;63.57
31357;BME280;60001;48.404;11.738;2023-03-01T02:46:04;96789.50;;;1.36;63.20
31357;BME280;60001;48.404;11.738;2023-03-01T02:47:35;96781.31;;;1.39;63.13
31357;BME280;60001;48.404;11.738;2023-03-01T02:49:19;96787.38;;;1.40;63.15
31357;BME280;60001;48.404;11.738;2023-03-01T02:51:03;96782.78;;;1.42;63.13
31357;BME280;60001;48.404;11.738;2023-03-01T02:52:46;96780.53;;;1.38;62.99
31357;BME280;60001;48.404;11.738;2023-03-01T02:54:29;96787.00;;;1.43;63.17
31357;BME280;60001;48.404;11.738;2023-03-01T02:56:03;96776.06;;;1.32;62.63
31357;BME280;60001;48.404;11.738;2023-03-01T02:57:38;96788.25;;;1.17;63.21
31357;BME280;60001;48.404;11.738;2023-03-01T02:59:11;96789.63;;;1.28;63.12
31357;BME280;60001;48.404;11.738;2023-03-01T03:00:46;96784.22;;;1.29;63.05
31357;BME280;60001;48.404;11.738;2023-03-01T03:02:21;96790.22;;;1.30;63.09
31357;BME280;60001;48.404;11.738;2023-03-01T03:04:08;96783.44;;;1.14;63.04
31357;BME280;60001;48.404;11.738;2023-03-01T03:05:41;96775.53;;;1.22;63.63
31357;BME280;60001;48.404;11.738;2023-03-01T03:07:13;96775.63;;;1.14;62.40
31357;BME280;60001;48.404;11.738;2023-03-01T03:08:45;96780.84;;;1.14;62.91
31357;BME280;60001;48.404;11.738;2023-03-01T03:10:18;96782.91;;;1.19;62.83
31357;BME280;60001;48.404;11.738;2023-03-01T03:11:50;96784.69;;;1.03;62.63
31357;BME280;60001;48.404;11.738;2023-03-01T03:13:22;96782.44;;;1.00;63.47
31357;BME280;60001;48.404;11.738;2023-03-01T03:14:59;96776.63;;;1.13;62.40
31357;BME280;60001;48.404;11.738;2023-03-01T03:16:32;96774.13;;;1.05;62.84
31357;BME280;60001;48.404;11.738;2023-03-01T03:18:06;96768.66;;;0.85;62.38
31357;BME280;60001;48.404;11.738;2023-03-01T03:19:38;96774.19;;;0.82;62.94
31357;BME280;60001;48.404;11.738;2023-03-01T03:21:11;96765.16;;;0.78;63.50
31357;BME280;60001;48.404;11.738;2023-03-01T03:22:44;96765.56;;;0.67;63.14
31357;BME280;60001;48.404;11.738;2023-03-01T03:24:16;96765.75;;;0.65;63.54
31357;BME280;60001;48.404;11.738;2023-03-01T03:25:49;96765.94;;;0.64;63.96
31357;BME280;60001;48.404;11.738;2023-03-01T03:27:21;96768.25;;;0.59;63.48
31357;BME280;60001;48.404;11.738;2023-03-01T03:28:53;96774.69;;;0.48;63.33
31357;BME280;60001;48.404;11.738;2023-03-01T03:30:27;96781.50;;;0.49;63.92
31357;BME280;60001;48.404;11.738;2023-03-01T03:32:03;96774.84;;;0.46;63.56
31357;BME280;60001;48.404;11.738;2023-03-01T03:33:35;96778.72;;;0.50;63.59
31357;BME280;60001;48.404;11.738;2023-03-01T03:35:09;96771.13;;;0.49;63.55
31357;BME280;60001;48.404;11.738;2023-03-01T03:36:41;96770.03;;;0.43;63.63
31357;BME280;60001;48.404;11.738;2023-03-01T03:38:14;96769.66;;;0.46;64.02
31357;BME280;60001;48.404;11.738;2023-03-01T03:39:49;96777.44;;;0.32;64.48
31357;BME280;60001;48.404;11.738;2023-03-01T03:41:20;96770.53;;;0.39;64.42
31357;BME280;60001;48.404;11.738;2023-03-01T03:42:52;96773.31;;;0.37;64.39
31357;BME280;60001;48.404;11.738;2023-03-01T03:44:24;96759.06;;;0.33;63.66
31357;BME280;60001;48.404;11.738;2023-03-01T03:45:55;96776.56;;;0.39;63.60
31357;BME280;60001;48.404;11.738;2023-03-01T03:47:30;96771.06;;;0.34;64.20
31357;BME280;60001;48.404;11.738;2023-03-01T03:49:00;96765.06;;;0.34;64.00
31357;BME280;60001;48.404;11.738;2023-03-01T03:50:33;96752.22;;;0.17;64.37
31357;BME280;60001;48.404;11.738;2023-03-01T03:52:04;96761.91;;;0.23;64.74
31357;BME280;60001;48.404;11.738;2023-03-01T03:53:44;96759.41;;;0.15;65.17
31357;BME280;60001;48.404;11.738;2023-03-01T03:55:16;96759.94;;;0.25;64.91
31357;BME280;60001;48.404;11.738;2023-03-01T03:56:49;96755.81;;;0.16;65.01
31357;BME280;60001;48.404;11.738;2023-03-01T03:58:23;96757.72;;;0.22;64.86
31357;BME280;60001;48.404;11.738;2023-03-01T03:59:54;96755.63;;;0.18;64.73
31357;BME280;60001;48.404;11.738;2023-03-01T04:01:26;96749.88;;;0.08;65.32
31357;BME280;60001;48.404;11.738;2023-03-01T04:03:01;96741.44;;;0.06;65.32
31357;BME280;60001;48.404;11.738;2023-03-01T04:06:04;96747.22;;;-0.07;65.26
31357;BME280;60001;48.404;11.738;2023-03-01T04:07:36;96739.38;;;0.01;65.40
31357;BME280;60001;48.404;11.738;2023-03-01T04:09:08;96729.50;;;-0.04;64.88
31357;BME280;60001;48.404;11.738;2023-03-01T04:10:42;96744.94;;;0.13;65.43
31357;BME280;60001;48.404;11.738;2023-03-01T04:12:14;96750.31;;;0.11;64.71
31357;BME280;60001;48.404;11.738;2023-03-01T04:13:53;96740.56;;;0.13;64.84
31357;BME280;60001;48.404;11.738;2023-03-01T04:15:26;96751.50;;;0.09;65.40
31357;BME280;60001;48.404;11.738;2023-03-01T04:16:57;96739.91;;;-0.04;65.64
31357;BME280;60001;48.404;11.738;2023-03-01T04:18:30;96740.00;;;0.03;64.89
31357;BME280;60001;48.404;11.738;2023-03-01T04:20:02;96733.59;;;-0.09;65.39
31357;BME280;60001;48.404;11.738;2023-03-01T04:21:36;96736.94;;;-0.01;65.15
31357;BME280;60001;48.404;11.738;2023-03-01T04:23:11;96735.66;;;-0.19;65.75
31357;BME280;60001;48.404;11.738;2023-03-01T04:24:44;96738.78;;;-0.09;65.62
31357;BME280;60001;48.404;11.738;2023-03-01T04:26:16;96745.78;;;-0.10;65.94
31357;BME280;60001;48.404;11.738;2023-03-01T04:27:48;96743.53;;;-0.13;65.49
31357;BME280;60001;48.404;11.738;2023-03-01T04:29:19;96739.97;;;-0.12;65.09
31357;BME280;60001;48.404;11.738;2023-03-01T04:30:51;96742.69;;;-0.05;65.47
31357;BME280;60001;48.404;11.738;2023-03-01T04:32:23;96740.78;;;-0.11;66.06
31357;BME280;60001;48.404;11.738;2023-03-01T04:33:55;96734.97;;;-0.13;65.46
31357;BME280;60001;48.404;11.738;2023-03-01T04:35:27;96744.91;;;-0.25;66.05
31357;BME280;60001;48.404;11.738;2023-03-01T04:36:58;96736.78;;;-0.22;66.24
31357;BME280;60001;48.404;11.738;2023-03-01T04:38:30;96739.03;;;-0.19;65.88
31357;BME280;60001;48.404;11.738;2023-03-01T04:40:03;96727.75;;;-0.26;66.42
31357;BME280;60001;48.404;11.738;2023-03-01T04:41:43;96740.34;;;-0.23;66.03
31357;BME280;60001;48.404;11.738;2023-03-01T04:43:15;96728.38;;;-0.24;67.07
31357;BME280;60001;48.404;11.738;2023-03-01T04:44:48;96733.50;;;-0.16;65.99
31357;BME280;60001;48.404;11.738;2023-03-01T04:46:21;96739.34;;;-0.14;66.27
31357;BME280;60001;48.404;11.738;2023-03-01T04:47:53;96740.16;;;-0.13;66.06
31357;BME280;60001;48.404;11.738;2023-03-01T04:49:26;96736.19;;;-0.09;65.62
31357;BME280;60001;48.404;11.738;2023-03-01T04:50:58;96733.50;;;-0.16;66.04
31357;BME280;60001;48.404;11.738;2023-03-01T04:52:31;96726.00;;;-0.34;66.04
31357;BME280;60001;48.404;11.738;2023-03-01T04:54:03;96736.44;;;-0.19;65.97
31357;BME280;60001;48.404;11.738;2023-03-01T04:55:39;96733.09;;;-0.28;65.87
31357;BME280;60001;48.404;11.738;2023-03-01T04:57:10;96740.25;;;-0.30;66.07
31357;BME280;60001;48.404;11.738;2023-03-01T04:58:42;96724.59;;;-0.21;65.96
31357;BME280;60001;48.404;11.738;2023-03-01T05:00:14;96721.69;;;-0.18;65.82
31357;BME280;60001;48.404;11.738;2023-03-01T05:01:53;96714.72;;;-0.41;66.41
31357;BME280;60001;48.404;11.738;2023-03-01T05:03:26;96715.09;;;-0.29;66.04
31357;BME280;60001;48.404;11.738;2023-03-01T05:05:00;96718.38;;;-0.35;66.83
31357;BME280;60001;48.404;11.738;2023-03-01T05:06:32;96709.56;;;-0.26;66.28
31357;BME280;60001;48.404;11.738;2023-03-01T05:08:06;96713.97;;;-0.26;66.18
31357;BME280;60001;48.404;11.738;2023-03-01T05:09:37;96714.97;;;-0.36;66.45
31357;BME280;60001;48.404;11.738;2023-03-01T05:11:11;96712.50;;;-0.29;66.51
31357;BME280;60001;48.404;11.738;2023-03-01T05:12:43;96719.41;;;-0.21;65.63
31357;BME280;60001;48.404;11.738;2023-03-01T05:14:14;96712.69;;;-0.31;65.91
31357;BME280;60001;48.404;11.738;2023-03-01T05:15:47;96711.81;;;-0.46;66.66
31357;BME280;60001;48.404;11.738;2023-03-01T05:17:19;96711.31;;;-0.41;66.65
31357;BME280;60001;48.404;11.738;2023-03-01T05:18:51;96718.38;;;-0.35;66.32
31357;BME280;60001;48.404;11.738;2023-03-01T05:20:28;96717.25;;;-0.33;66.65
31357;BME280;60001;48.404;11.738;2023-03-01T05:22:00;96711.50;;;-0.28;66.62
31357;BME280;60001;48.404;11.738;2023-03-01T05:23:35;96714.03;;;-0.35;66.39
31357;BME280;60001;48.404;11.738;2023-03-01T05:25:07;96720.75;;;-0.25;66.16
31357;BME280;60001;48.404;11.738;2023-03-01T05:26:38;96713.59;;;-0.23;66.10
31357;BME280;60001;48.404;11.738;2023-03-01T05:28:11;96701.31;;;-0.30;65.97
31357;BME280;60001;48.404;11.738;2023-03-01T05:29:43;96710.25;;;-0.32;66.30
31357;BME280;60001;48.404;11.738;2023-03-01T05:31:15;96713.38;;;-0.37;65.91
31357;BME280;60001;48.404;11.738;2023-03-01T05:32:49;96712.38;;;-0.36;66.25
31357;BME280;60001;48.404;11.738;2023-03-01T05:34:27;96717.25;;;-0.33;66.75
31357;BME280;60001;48.404;11.738;2023-03-01T05:36:01;96720.91;;;-0.50;66.99
31357;BME280;60001;48.404;11.738;2023-03-01T05:37:31;96714.59;;;-0.47;66.30
31357;BME280;60001;48.404;11.738;2023-03-01T05:39:03;96714.66;;;-0.56;66.55
31357;BME280;60001;48.404;11.738;2023-03-01T05:40:35;96716.59;;;-0.58;67.06
31357;BME280;60001;48.404;11.738;2023-03-01T05:42:10;96719.78;;;-0.47;66.57
31357;BME280;60001;48.404;11.738;2023-03-01T05:43:41;96720.91;;;-0.50;66.64
31357;BME280;60001;48.404;11.738;2023-03-01T05:45:16;96720.28;;;-0.52;66.94
31357;BME280;60001;48.404;11.738;2023-03-01T05:46:49;96718.19;;;-0.57;66.86
31357;BME280;60001;48.404;11.738;2023-03-01T05:48:21;96713.47;;;-0.53;67.25
31357;BME280;60001;48.404;11.738;2023-03-01T05:49:53;96717.34;;;-0.49;67.16
31357;BME280;60001;48.404;11.738;2023-03-01T05:51:25;96711.47;;;-0.43;66.46
31357;BME280;60001;48.404;11.738;2023-03-01T05:52:59;96697.06;;;-0.68;66.79
31357;BME280;60001;48.404;11.738;2023-03-01T05:54:31;96709.97;;;-0.60;67.25
31357;BME280;60001;48.404;11.738;2023-03-01T05:56:04;96716.69;;;-0.51;66.90
31357;BME280;60001;48.404;11.738;2023-03-01T05:57:37;96720.91;;;-0.50;66.70
31357;BME280;60001;48.404;11.738;2023-03-01T05:59:08;96718.97;;;-0.48;66.47
31357;BME280;60001;48.404;11.738;2023-03-01T06:00:41;96720.28;;;-0.52;67.19
31357;BME280;60001;48.404;11.738;2023-03-01T06:02:13;96720.22;;;-0.44;66.67
31357;BME280;60001;48.404;11.738;2023-03-01T06:03:44;96724.16;;;-0.48;66.35
31357;BME280;60001;48.404;11.738;2023-03-01T06:05:16;96724.47;;;-0.51;66.69
31357;BME280;60001;48.404;11.738;2023-03-01T06:06:50;96723.06;;;-0.53;66.88
31357;BME280;60001;48.404;11.738;2023-03-01T06:08:22;96726.03;;;-0.65;66.92
31357;BME280;60001;48.404;11.738;2023-03-01T06:09:54;96722.56;;;-0.57;66.69
31357;BME280;60001;48.404;11.738;2023-03-01T06:11:26;96721.78;;;-0.58;66.51
31357;BME280;60001;48.404;11.738;2023-03-01T06:12:58;96721.19;;;-0.68;67.03
31357;BME280;60001;48.404;11.738;2023-03-01T06:14:30;96720.47;;;-0.53;67.14
31357;BME280;60001;48.404;11.738;2023-03-01T06:16:04;96715.19;;;-0.68;67.51
31357;BME280;60001;48.404;11.738;2023-03-01T06:17:39;96724.84;;;-0.54;67.08
31357;BME280;60001;48.404;11.738;2023-03-01T06:19:11;96724.16;;;-0.48;66.98
31357;BME280;60001;48.404;11.738;2023-03-01T06:20:42;96720.09;;;-0.50;66.61
31357;BME280;60001;48.404;11.738;2023-03-01T06:22:16;96725.09;;;-0.41;66.93
31357;BME280;60001;48.404;11.738;2023-03-01T06:23:47;96732.22;;;-0.43;66.78
31357;BME280;60001;48.404;11.738;2023-03-01T06:25:22;96741.91;;;-0.37;66.64
31357;BME280;60001;48.404;11.738;2023-03-01T06:26:55;96731.81;;;-0.54;66.03
31357;BME280;60001;48.404;11.738;2023-03-01T06:28:27;96733.03;;;-0.42;66.28
31357;BME280;60001;48.404;11.738;2023-03-01T06:29:59;96730.53;;;-0.36;65.85
31357;BME280;60001;48.404;11.738;2023-03-01T06:31:30;96733.69;;;-0.40;66.18
31357;BME280;60001;48.404;11.738;2023-03-01T06:33:02;96726.81;;;-0.33;66.21
31357;BME280;60001;48.404;11.738;2023-03-01T06:34:34;96734.19;;;-0.45;66.36
31357;BME280;60001;48.404;11.738;2023-03-01T06:36:07;96737.38;;;-0.35;66.24
31357;BME280;60001;48.404;11.738;2023-03-01T06:37:40;96726.13;;;-0.27;65.94
31357;BME280;60001;48.404;11.738;2023-03-01T06:39:12;96733.56;;;-0.24;65.98
31357;BME280;60001;48.404;11.738;2023-03-01T06:40:45;96736.03;;;-0.31;65.94
31357;BME280;60001;48.404;11.738;2023-03-01T06:42:16;96745.97;;;-0.34;65.76
31357;BME280;60001;48.404;11.738;2023-03-01T06:43:48;96739.91;;;-0.26;65.82
31357;BME280;60001;48.404;11.738;2023-03-01T06:45:21;96741.28;;;-0.16;65.58
31357;BME280;60001;48.404;11.738;2023-03-01T06:46:53;96740.97;;;-0.21;65.52
31357;BME280;60001;48.404;11.738;2023-03-01T06:48:24;96738.88;;;-0.17;65.75
31357;BME280;60001;48.404;11.738;2023-03-01T06:49:56;96739.59;;;-0.09;65.47
31357;BME280;60001;48.404;11.738;2023-03-01T06:51:28;96733.28;;;-0.06;65.44
31357;BME280;60001;48.404;11.738;2023-03-01T06:53:02;96735.19;;;0.00;65.44
31357;BME280;60001;48.404;11.738;2023-03-01T06:54:34;96737.69;;;-0.15;65.51
31357;BME280;60001;48.404;11.738;2023-03-01T06:56:06;96738.78;;;-0.09;64.96
31357;BME280;60001;48.404;11.738;2023-03-01T06:57:38;96731.84;;;0.06;65.07
31357;BME280;60001;48.404;11.738;2023-03-01T06:59:09;96735.25;;;0.07;64.75
31357;BME280;60001;48.404;11.738;2023-03-01T07:00:41;96733.75;;;0.12;64.49
31357;BME280;60001;48.404;11.738;2023-03-01T07:02:15;96734.34;;;-0.01;65.10
31357;BME280;60001;48.404;11.738;2023-03-01T07:03:47;96736.66;;;0.17;64.62
31357;BME280;60001;48.404;11.738;2023-03-01T07:05:19;96731.63;;;0.16;64.71
31357;BME280;60001;48.404;11.738;2023-03-01T07:06:50;96731.84;;;0.06;64.45
31357;BME280;60001;48.404;11.738;2023-03-01T07:08:27;96723.06;;;0.30;64.91
31357;BME280;60001;48.404;11.738;2023-03-01T07:09:59;96728.53;;;0.35;64.72
31357;BME280;60001;48.404;11.738;2023-03-01T07:11:32;96718.84;;;0.29;64.93
31357;BME280;60001;48.404;11.738;2023-03-01T07:13:03;96720.38;;;0.38;64.75
31357;BME280;60001;48.404;11.738;2023-03-01T07:14:37;96725.78;;;0.51;63.60
31357;BME280;60001;48.404;11.738;2023-03-01T07:16:09;96728.66;;;0.42;64.08
31357;BME280;60001;48.404;11.738;2023-03-01T07:17:41;96713.59;;;0.37;63.87
31357;BME280;60001;48.404;11.738;2023-03-01T07:19:14;96709.03;;;0.54;63.69
31357;BME280;60001;48.404;11.738;2023-03-01T07:20:46;96720.59;;;0.66;63.67
31357;BME280;60001;48.404;11.738;2023-03-01T07:22:18;96725.41;;;0.69;63.03
31357;BME280;60001;48.404;11.738;2023-03-01T07:23:52;96712.50;;;0.61;62.79
31357;BME280;60001;48.404;11.738;2023-03-01T07:25:24;96723.09;;;0.60;63.43
31357;BME280;60001;48.404;11.738;2023-03-01T07:26:56;96709.56;;;0.64;62.93
31357;BME280;60001;48.404;11.738;2023-03-01T07:28:27;96711.00;;;0.67;62.78
31357;BME280;60001;48.404;11.738;2023-03-01T07:29:59;96712.41;;;0.69;62.64
31357;BME280;60001;48.404;11.738;2023-03-01T07:31:32;96711.00;;;0.67;63.21
31357;BME280;60001;48.404;11.738;2023-03-01T07:33:04;96706.50;;;0.61;63.04
31357;BME280;60001;48.404;11.738;2023-03-01T07:34:35;96708.41;;;0.67;62.93
31357;BME280;60001;48.404;11.738;2023-03-01T07:36:08;96715.38;;;0.81;62.19
31357;BME280;60001;48.404;11.738;2023-03-01T07:37:40;96707.59;;;0.81;62.75
31357;BME280;60001;48.404;11.738;2023-03-01T07:39:14;96714.06;;;0.85;62.48
31357;BME280;60001;48.404;11.738;2023-03-01T07:40:46;96702.56;;;0.79;62.34
31357;BME280;60001;48.404;11.738;2023-03-01T07:42:18;96707.94;;;1.07;61.76
31357;BME280;60001;48.404;11.738;2023-03-01T07:43:51;96705.25;;;1.01;60.89
31357;BME280;60001;48.404;11.738;2023-03-01T07:45:23;96700.97;;;0.93;61.71
31357;BME280;60001;48.404;11.738;2023-03-01T07:46:56;96700.31;;;0.76;61.92
31357;BME280;60001;48.404;11.738;2023-03-01T07:48:30;96703.63;;;1.00;61.40
31357;BME280;60001;48.404;11.738;2023-03-01T07:50:03;96697.16;;;1.10;61.16
31357;BME280;60001;48.404;11.738;2023-03-01T07:51:36;96702.09;;;1.20;61.80
31357;BME280;60001;48.404;11.738;2023-03-01T07:53:08;96699.94;;;1.45;62.15
31357;BME280;60001;48.404;11.738;2023-03-01T07:54:43;96689.56;;;1.30;60.00
31357;BME280;60001;48.404;11.738;2023-03-01T07:56:15;96704.19;;;1.46;59.75
31357;BME280;60001;48.404;11.738;2023-03-01T07:57:48;96698.84;;;1.33;60.66
31357;BME280;60001;48.404;11.738;2023-03-01T07:59:20;96705.34;;;1.44;59.66
31357;BME280;60001;48.404;11.738;2023-03-01T08:00:54;96693.63;;;1.33;59.80
31357;BME280;60001;48.404;11.738;2023-03-01T08:02:25;96705.91;;;1.24;60.17
31357;BME280;60001;48.404;11.738;2023-03-01T08:03:57;96703.88;;;1.56;60.34
31357;BME280;60001;48.404;11.738;2023-03-01T08:05:29;96700.94;;;1.87;59.27
31357;BME280;60001;48.404;11.738;2023-03-01T08:07:03;96704.38;;;2.09;59.22
31357;BME280;60001;48.404;11.738;2023-03-01T08:08:36;96697.56;;;2.14;58.32
31357;BME280;60001;48.404;11.738;2023-03-01T08:10:10;96697.47;;;2.29;56.76
31357;BME280;60001;48.404;11.738;2023-03-01T08:11:42;96686.94;;;2.37;56.62
31357;BME280;60001;48.404;11.738;2023-03-01T08:13:14;96689.41;;;2.45;56.71
31357;BME280;60001;48.404;11.738;2023-03-01T08:14:46;96686.41;;;2.48;55.77
31357;BME280;60001;48.404;11.738;2023-03-01T08:16:18;96688.19;;;2.48;55.34